EWG72D EDDH-EDDH
Flight info
| Callsign | EWG72D |
|---|---|
| Flight time | 0h 30m |
| Altitude | |
| Route | |
| Aircraft |
Departure
| Time | 2026-04-23 07:33 |
|---|---|
| Airport | Hamburg Helmut Schmidt Airport (EDDH) |
Arrival
| Time | 2026-04-23 08:03 |
|---|---|
| Airport | Hamburg Helmut Schmidt Airport (EDDH) |
| Time | Latitude | Longitude | Altitude | Speed | Heading |
|---|---|---|---|---|---|
| 2026-04-23 07:18 | 53.62840 | 10.00208 | 46 ft | 0 kts | 63° |
| 2026-04-23 07:24 | 53.62834 | 10.00187 | 51 ft | 2 kts | 63° |
| 2026-04-23 07:24 | 53.62826 | 10.00162 | 48 ft | 2 kts | 63° |
| 2026-04-23 07:24 | 53.62819 | 10.00138 | 49 ft | 2 kts | 26° |
| 2026-04-23 07:24 | 53.62803 | 10.00132 | 49 ft | 2 kts | 4° |
| 2026-04-23 07:25 | 53.62787 | 10.00129 | 51 ft | 2 kts | 351° |
| 2026-04-23 07:25 | 53.62782 | 10.00129 | 51 ft | 0 kts | 341° |
| 2026-04-23 07:29 | 53.62803 | 10.00116 | 46 ft | 8 kts | 335° |
| 2026-04-23 07:30 | 53.62878 | 10.00054 | 51 ft | 16 kts | 334° |
| 2026-04-23 07:30 | 53.63007 | 9.99949 | 51 ft | 24 kts | 332° |
| 2026-04-23 07:30 | 53.63160 | 9.99815 | 51 ft | 20 kts | 332° |
| 2026-04-23 07:30 | 53.63290 | 9.99791 | 49 ft | 21 kts | 43° |
| 2026-04-23 07:31 | 53.63397 | 10.00001 | 51 ft | 26 kts | 49° |
| 2026-04-23 07:31 | 53.63493 | 10.00193 | 51 ft | 15 kts | 50° |
| 2026-04-23 07:31 | 53.63574 | 10.00275 | 51 ft | 14 kts | 349° |
| 2026-04-23 07:31 | 53.63637 | 10.00191 | 52 ft | 12 kts | 317° |
| 2026-04-23 07:32 | 53.63652 | 10.00064 | 52 ft | 13 kts | 227° |
| 2026-04-23 07:32 | 53.63577 | 9.99911 | 51 ft | 24 kts | 230° |
| 2026-04-23 07:32 | 53.63294 | 9.99333 | 52 ft | 108 kts | 230° |
| 2026-04-23 07:32 | 53.62669 | 9.98084 | 361 ft | 154 kts | 233° |
| 2026-04-23 07:33 | 53.61934 | 9.96681 | 1207 ft | 170 kts | 234° |
| 2026-04-23 07:33 | 53.61115 | 9.95100 | 2026 ft | 189 kts | 236° |
| 2026-04-23 07:33 | 53.60200 | 9.93318 | 2894 ft | 208 kts | 234° |
| 2026-04-23 07:33 | 53.59089 | 9.91576 | 3385 ft | 222 kts | 230° |
| 2026-04-23 07:34 | 53.58150 | 9.89727 | 3561 ft | 204 kts | 252° |
| 2026-04-23 07:34 | 53.57966 | 9.87481 | 3817 ft | 190 kts | 289° |
| 2026-04-23 07:34 | 53.58626 | 9.85648 | 3962 ft | 183 kts | 324° |
| 2026-04-23 07:34 | 53.59797 | 9.84841 | 4012 ft | 184 kts | 345° |
| 2026-04-23 07:35 | 53.61067 | 9.84434 | 4012 ft | 185 kts | 348° |
| 2026-04-23 07:35 | 53.62332 | 9.84084 | 4011 ft | 186 kts | 348° |
| 2026-04-23 07:35 | 53.63615 | 9.83739 | 4012 ft | 187 kts | 348° |
| 2026-04-23 07:35 | 53.64902 | 9.83397 | 4009 ft | 187 kts | 348° |
| 2026-04-23 07:36 | 53.66197 | 9.83250 | 4010 ft | 190 kts | 7° |
| 2026-04-23 07:36 | 53.67388 | 9.84272 | 4012 ft | 200 kts | 33° |
| 2026-04-23 07:36 | 53.68301 | 9.86095 | 4012 ft | 207 kts | 49° |
| 2026-04-23 07:36 | 53.69080 | 9.88149 | 4011 ft | 202 kts | 51° |
| 2026-04-23 07:37 | 53.69791 | 9.90127 | 3870 ft | 196 kts | 51° |
| 2026-04-23 07:37 | 53.70482 | 9.92071 | 3552 ft | 193 kts | 51° |
| 2026-04-23 07:37 | 53.71162 | 9.94004 | 3183 ft | 189 kts | 51° |
| 2026-04-23 07:37 | 53.71822 | 9.95892 | 3013 ft | 184 kts | 51° |
| 2026-04-23 07:38 | 53.72474 | 9.97755 | 3015 ft | 185 kts | 51° |
| 2026-04-23 07:38 | 53.73125 | 9.99638 | 3009 ft | 185 kts | 51° |
| 2026-04-23 07:38 | 53.73748 | 10.01448 | 3006 ft | 178 kts | 51° |
| 2026-04-23 07:38 | 53.74365 | 10.03251 | 3006 ft | 176 kts | 51° |
| 2026-04-23 07:39 | 53.74984 | 10.05044 | 3005 ft | 175 kts | 51° |
| 2026-04-23 07:39 | 53.75597 | 10.06827 | 3005 ft | 175 kts | 51° |
| 2026-04-23 07:39 | 53.76210 | 10.08608 | 3004 ft | 175 kts | 51° |
| 2026-04-23 07:39 | 53.76812 | 10.10388 | 3018 ft | 175 kts | 51° |
| 2026-04-23 07:40 | 53.77407 | 10.12156 | 3004 ft | 175 kts | 51° |
| 2026-04-23 07:40 | 53.77975 | 10.13991 | 2998 ft | 177 kts | 53° |
| 2026-04-23 07:40 | 53.78508 | 10.15841 | 2987 ft | 178 kts | 66° |
| 2026-04-23 07:40 | 53.78364 | 10.17959 | 2991 ft | 190 kts | 112° |
| 2026-04-23 07:41 | 53.77542 | 10.19723 | 3002 ft | 193 kts | 135° |
| 2026-04-23 07:41 | 53.76416 | 10.20852 | 2998 ft | 191 kts | 163° |
| 2026-04-23 07:41 | 53.75121 | 10.21094 | 3002 ft | 184 kts | 191° |
| 2026-04-23 07:41 | 53.73928 | 10.20459 | 3003 ft | 176 kts | 217° |
| 2026-04-23 07:42 | 53.73039 | 10.19189 | 2944 ft | 157 kts | 240° |
| 2026-04-23 07:42 | 53.72362 | 10.17812 | 2797 ft | 148 kts | 241° |
| 2026-04-23 07:42 | 53.71716 | 10.16488 | 2618 ft | 144 kts | 240° |
| 2026-04-23 07:42 | 53.71085 | 10.15198 | 2431 ft | 141 kts | 241° |
| 2026-04-23 07:43 | 53.70471 | 10.13944 | 2242 ft | 139 kts | 240° |
| 2026-04-23 07:43 | 53.69859 | 10.12695 | 2060 ft | 136 kts | 239° |
| 2026-04-23 07:43 | 53.69256 | 10.11465 | 1866 ft | 135 kts | 240° |
| 2026-04-23 07:43 | 53.68658 | 10.10247 | 1686 ft | 134 kts | 240° |
| 2026-04-23 07:44 | 53.68071 | 10.09052 | 1501 ft | 133 kts | 239° |
| 2026-04-23 07:44 | 53.67483 | 10.07854 | 1316 ft | 133 kts | 238° |
| 2026-04-23 07:44 | 53.66882 | 10.06668 | 1088 ft | 131 kts | 237° |
| 2026-04-23 07:44 | 53.66300 | 10.05487 | 907 ft | 129 kts | 239° |
| 2026-04-23 07:45 | 53.65740 | 10.04320 | 762 ft | 130 kts | 238° |
| 2026-04-23 07:45 | 53.65173 | 10.03183 | 650 ft | 126 kts | 238° |
| 2026-04-23 07:45 | 53.64600 | 10.02023 | 481 ft | 130 kts | 234° |
| 2026-04-23 07:45 | 53.64035 | 10.00859 | 275 ft | 131 kts | 236° |
| 2026-04-23 07:46 | 53.63475 | 9.99718 | 69 ft | 117 kts | 235° |
| 2026-04-23 07:46 | 53.63009 | 9.98760 | 50 ft | 94 kts | 231° |
| 2026-04-23 07:46 | 53.62457 | 9.97642 | 58 ft | 169 kts | 233° |
| 2026-04-23 07:46 | 53.61631 | 9.96032 | 933 ft | 183 kts | 234° |
| 2026-04-23 07:47 | 53.60789 | 9.94381 | 1758 ft | 193 kts | 234° |
| 2026-04-23 07:47 | 53.59847 | 9.92694 | 2561 ft | 202 kts | 233° |
| 2026-04-23 07:47 | 53.58833 | 9.90949 | 2950 ft | 212 kts | 232° |
| 2026-04-23 07:47 | 53.57792 | 9.89191 | 3004 ft | 212 kts | 232° |
| 2026-04-23 07:48 | 53.56772 | 9.87391 | 3011 ft | 212 kts | 235° |
| 2026-04-23 07:48 | 53.55517 | 9.86050 | 3014 ft | 229 kts | 198° |
| 2026-04-23 07:48 | 53.53931 | 9.86376 | 3010 ft | 237 kts | 152° |
| 2026-04-23 07:48 | 53.52828 | 9.88334 | 3011 ft | 230 kts | 107° |
| 2026-04-23 07:49 | 53.52757 | 9.90866 | 3012 ft | 211 kts | 61° |
| 2026-04-23 07:49 | 53.53615 | 9.92674 | 3012 ft | 195 kts | 31° |
| 2026-04-23 07:49 | 53.54561 | 9.94313 | 3006 ft | 206 kts | 53° |
| 2026-04-23 07:49 | 53.55206 | 9.96514 | 3015 ft | 207 kts | 55° |
| 2026-04-23 07:50 | 53.55845 | 9.98621 | 3024 ft | 197 kts | 54° |
| 2026-04-23 07:50 | 53.56466 | 10.00672 | 3025 ft | 196 kts | 54° |
| 2026-04-23 07:50 | 53.57101 | 10.02643 | 3015 ft | 193 kts | 52° |
| 2026-04-23 07:50 | 53.57802 | 10.04614 | 3025 ft | 195 kts | 50° |
| 2026-04-23 07:51 | 53.58507 | 10.06541 | 3017 ft | 195 kts | 50° |
| 2026-04-23 07:51 | 53.59222 | 10.08490 | 3011 ft | 195 kts | 50° |
| 2026-04-23 07:51 | 53.59939 | 10.10441 | 3011 ft | 194 kts | 50° |
| 2026-04-23 07:51 | 53.60641 | 10.12341 | 3010 ft | 195 kts | 50° |
| 2026-04-23 07:52 | 53.61352 | 10.14285 | 3006 ft | 190 kts | 50° |
| 2026-04-23 07:52 | 53.62035 | 10.16168 | 3005 ft | 187 kts | 51° |
| 2026-04-23 07:52 | 53.62718 | 10.18030 | 3008 ft | 186 kts | 50° |
| 2026-04-23 07:52 | 53.63389 | 10.19852 | 3005 ft | 185 kts | 51° |
| 2026-04-23 07:53 | 53.64069 | 10.21700 | 3013 ft | 185 kts | 50° |
| 2026-04-23 07:53 | 53.64740 | 10.23560 | 3005 ft | 185 kts | 50° |
| 2026-04-23 07:53 | 53.65401 | 10.25416 | 3002 ft | 185 kts | 50° |
| 2026-04-23 07:53 | 53.66066 | 10.27277 | 2999 ft | 185 kts | 51° |
| 2026-04-23 07:54 | 53.66734 | 10.29113 | 3001 ft | 187 kts | 50° |
| 2026-04-23 07:54 | 53.67416 | 10.30981 | 2998 ft | 187 kts | 50° |
| 2026-04-23 07:54 | 53.68100 | 10.32855 | 2978 ft | 187 kts | 50° |
| 2026-04-23 07:54 | 53.68778 | 10.34716 | 2976 ft | 185 kts | 48° |
| 2026-04-23 07:55 | 53.69670 | 10.36180 | 2977 ft | 174 kts | 21° |
| 2026-04-23 07:55 | 53.70787 | 10.36400 | 2981 ft | 163 kts | 342° |
| 2026-04-23 07:55 | 53.71779 | 10.35626 | 2975 ft | 148 kts | 330° |
| 2026-04-23 07:55 | 53.72621 | 10.34786 | 2988 ft | 136 kts | 326° |
| 2026-04-23 07:56 | 53.73373 | 10.33857 | 2982 ft | 132 kts | 323° |
| 2026-04-23 07:56 | 53.74067 | 10.32855 | 2980 ft | 130 kts | 319° |
| 2026-04-23 07:56 | 53.74754 | 10.31857 | 2979 ft | 130 kts | 321° |
| 2026-04-23 07:56 | 53.75458 | 10.30907 | 2993 ft | 129 kts | 322° |
| 2026-04-23 07:57 | 53.76156 | 10.29971 | 2994 ft | 130 kts | 320° |
| 2026-04-23 07:57 | 53.76654 | 10.28685 | 2995 ft | 134 kts | 294° |
| 2026-04-23 07:57 | 53.76692 | 10.27068 | 2995 ft | 145 kts | 265° |
| 2026-04-23 07:57 | 53.76166 | 10.25567 | 2997 ft | 157 kts | 238° |
| 2026-04-23 07:58 | 53.75470 | 10.24152 | 2997 ft | 157 kts | 240° |
| 2026-04-23 07:58 | 53.74775 | 10.22730 | 3001 ft | 156 kts | 240° |
| 2026-04-23 07:58 | 53.74080 | 10.21310 | 3002 ft | 153 kts | 239° |
| 2026-04-23 07:58 | 53.73418 | 10.19961 | 2993 ft | 146 kts | 240° |
| 2026-04-23 07:59 | 53.72784 | 10.18664 | 2888 ft | 144 kts | 240° |
| 2026-04-23 07:59 | 53.72150 | 10.17366 | 2737 ft | 143 kts | 240° |
| 2026-04-23 07:59 | 53.71519 | 10.16078 | 2556 ft | 141 kts | 239° |
| 2026-04-23 07:59 | 53.70895 | 10.14807 | 2373 ft | 139 kts | 239° |
| 2026-04-23 08:00 | 53.70289 | 10.13570 | 2194 ft | 138 kts | 239° |
| 2026-04-23 08:00 | 53.69684 | 10.12337 | 2003 ft | 135 kts | 240° |
| 2026-04-23 08:00 | 53.69083 | 10.11112 | 1807 ft | 134 kts | 239° |
| 2026-04-23 08:00 | 53.68492 | 10.09909 | 1623 ft | 133 kts | 239° |
| 2026-04-23 08:01 | 53.67898 | 10.08700 | 1449 ft | 134 kts | 238° |
| 2026-04-23 08:01 | 53.67320 | 10.07524 | 1261 ft | 131 kts | 238° |
| 2026-04-23 08:01 | 53.66737 | 10.06338 | 1079 ft | 131 kts | 237° |
| 2026-04-23 08:01 | 53.66150 | 10.05160 | 902 ft | 131 kts | 235° |
| 2026-04-23 08:02 | 53.65566 | 10.04010 | 764 ft | 128 kts | 238° |
| 2026-04-23 08:02 | 53.65010 | 10.02833 | 595 ft | 127 kts | 237° |
| 2026-04-23 08:02 | 53.64447 | 10.01720 | 421 ft | 125 kts | 241° |
| 2026-04-23 08:02 | 53.63873 | 10.00541 | 220 ft | 129 kts | 236° |
| 2026-04-23 08:03 | 53.63331 | 9.99426 | 53 ft | 114 kts | 234° |
| 2026-04-23 08:03 | 53.62892 | 9.98526 | 49 ft | 79 kts | 229° |
| 2026-04-23 08:03 | 53.62632 | 9.98002 | 49 ft | 40 kts | 230° |
| 2026-04-23 08:03 | 53.62495 | 9.97781 | 47 ft | 22 kts | 187° |
| 2026-04-23 08:04 | 53.62428 | 9.97907 | 50 ft | 11 kts | 91° |
| 2026-04-23 08:04 | 53.62429 | 9.97925 | 50 ft | 0 kts | 82° |
| 2026-04-23 08:04 | 53.62432 | 9.97961 | 50 ft | 11 kts | 81° |
| 2026-04-23 08:05 | 53.62460 | 9.98186 | 51 ft | 28 kts | 78° |
| 2026-04-23 08:05 | 53.62489 | 9.98444 | 51 ft | 21 kts | 79° |
| 2026-04-23 08:05 | 53.62517 | 9.98685 | 51 ft | 21 kts | 79° |
| 2026-04-23 08:05 | 53.62545 | 9.98929 | 51 ft | 22 kts | 79° |
| 2026-04-23 08:06 | 53.62573 | 9.99178 | 51 ft | 22 kts | 79° |
| 2026-04-23 08:06 | 53.62602 | 9.99433 | 51 ft | 22 kts | 79° |
| 2026-04-23 08:06 | 53.62628 | 9.99665 | 50 ft | 12 kts | 79° |
| 2026-04-23 08:06 | 53.62650 | 9.99803 | 50 ft | 13 kts | 62° |
| 2026-04-23 08:07 | 53.62727 | 9.99889 | 49 ft | 14 kts | 27° |
| 2026-04-23 08:07 | 53.62776 | 9.99932 | 49 ft | 0 kts | 27° |
| 2026-04-23 08:07 | 53.62784 | 9.99938 | 50 ft | 7 kts | 28° |
| 2026-04-23 08:07 | 53.62835 | 10.00044 | 51 ft | 12 kts | 89° |
| 2026-04-23 08:08 | 53.62781 | 10.00139 | 51 ft | 11 kts | 118° |
| 2026-04-23 08:08 | 53.62802 | 10.00226 | 49 ft | 4 kts | 61° |
| 2026-04-23 08:08 | 53.62804 | 10.00235 | 50 ft | 0 kts | 64° |